createdAt,value
2023-12-12T00:00:02.283Z,5.51
2023-12-12T00:02:29.938Z,5.51
2023-12-12T00:04:57.706Z,5.49
2023-12-12T00:07:25.416Z,5.45
2023-12-12T00:09:53.158Z,5.44
2023-12-12T00:12:20.933Z,5.43
2023-12-12T00:14:48.558Z,5.41
2023-12-12T00:17:16.187Z,5.40
2023-12-12T00:19:44.103Z,5.39
2023-12-12T00:22:11.996Z,5.38
2023-12-12T00:24:39.738Z,5.38
2023-12-12T00:27:07.387Z,5.37
2023-12-12T00:29:34.937Z,5.35
2023-12-12T00:32:02.594Z,5.35
2023-12-12T00:34:30.363Z,5.34
2023-12-12T00:36:58.281Z,5.33
2023-12-12T00:39:28.873Z,5.32
2023-12-12T00:41:57.238Z,5.30
2023-12-12T00:44:24.793Z,5.30
2023-12-12T00:46:52.473Z,5.29
2023-12-12T00:49:20.133Z,5.27
2023-12-12T00:51:48.003Z,5.27
2023-12-12T00:54:15.549Z,5.28
2023-12-12T00:56:43.312Z,5.28
2023-12-12T00:59:10.860Z,5.28
2023-12-12T01:01:38.432Z,5.27
2023-12-12T01:04:06.466Z,5.28
2023-12-12T01:06:34.151Z,5.28
2023-12-12T01:09:01.916Z,5.28
2023-12-12T01:11:29.585Z,5.26
2023-12-12T01:13:57.267Z,5.25
2023-12-12T01:16:26.205Z,5.25
2023-12-12T01:18:55.006Z,5.25
2023-12-12T01:21:22.679Z,5.23
2023-12-12T01:23:50.231Z,5.22
2023-12-12T01:26:17.899Z,5.22
2023-12-12T01:28:45.561Z,5.24
2023-12-12T01:31:13.264Z,5.25
2023-12-12T01:33:40.899Z,5.26
2023-12-12T01:36:08.642Z,5.26
2023-12-12T01:38:36.324Z,5.28
2023-12-12T01:41:03.963Z,5.30
2023-12-12T01:43:31.678Z,5.32
2023-12-12T01:45:59.444Z,5.32
2023-12-12T01:48:27.455Z,5.34
2023-12-12T01:50:55.227Z,5.35
2023-12-12T01:53:22.897Z,5.38
2023-12-12T01:55:50.447Z,5.36
2023-12-12T01:58:18.179Z,5.35
2023-12-12T02:00:45.789Z,5.35
2023-12-12T02:03:13.326Z,5.35
2023-12-12T02:05:41.054Z,5.35
2023-12-12T02:08:08.650Z,5.33
2023-12-12T02:10:36.329Z,5.31
2023-12-12T02:13:03.938Z,5.31
2023-12-12T02:15:31.839Z,5.32
2023-12-12T02:17:59.485Z,5.33
2023-12-12T02:20:27.370Z,5.34
2023-12-12T02:22:54.931Z,5.34
2023-12-12T02:25:22.518Z,5.34
2023-12-12T02:27:50.081Z,5.36
2023-12-12T02:30:17.711Z,5.37
2023-12-12T02:32:45.440Z,5.38
2023-12-12T02:35:13.347Z,5.39
2023-12-12T02:37:40.917Z,5.39
2023-12-12T02:40:08.699Z,5.41
2023-12-12T02:42:36.326Z,5.41
2023-12-12T02:45:04.001Z,5.41
2023-12-12T02:47:32.046Z,5.40
2023-12-12T02:50:00.454Z,5.38
2023-12-12T02:52:28.249Z,5.38
2023-12-12T02:54:55.978Z,5.39
2023-12-12T02:57:23.509Z,5.41
2023-12-12T02:59:51.189Z,5.40
2023-12-12T03:02:18.851Z,5.41
2023-12-12T03:04:46.603Z,5.42
2023-12-12T03:07:14.297Z,5.44
2023-12-12T03:09:42.028Z,5.44
2023-12-12T03:12:10.015Z,5.44
2023-12-12T03:14:37.557Z,5.42
2023-12-12T03:17:05.227Z,5.41
2023-12-12T03:19:32.868Z,5.41
2023-12-12T03:22:00.832Z,5.43
2023-12-12T03:24:28.504Z,5.43
2023-12-12T03:26:56.171Z,5.42
2023-12-12T03:29:24.047Z,5.42
2023-12-12T03:31:51.593Z,5.43
2023-12-12T03:34:19.327Z,5.45
2023-12-12T03:36:47.151Z,5.45
2023-12-12T03:39:14.613Z,5.44
2023-12-12T03:41:42.230Z,5.44
2023-12-12T03:44:09.794Z,5.45
2023-12-12T03:46:37.491Z,5.46
2023-12-12T03:49:05.225Z,5.46
2023-12-12T03:51:32.989Z,5.45
2023-12-12T03:54:00.547Z,5.44
2023-12-12T03:56:28.417Z,5.44
2023-12-12T03:58:56.072Z,5.46
2023-12-12T04:01:23.694Z,5.46
2023-12-12T04:03:51.563Z,5.46
2023-12-12T04:06:19.263Z,5.47
2023-12-12T04:08:46.921Z,5.49
2023-12-12T04:11:14.478Z,5.49
2023-12-12T04:13:42.237Z,5.50
2023-12-12T04:16:09.845Z,5.48
2023-12-12T04:18:37.902Z,5.48
2023-12-12T04:21:05.538Z,5.48
2023-12-12T04:23:33.189Z,5.48
2023-12-12T04:26:00.838Z,5.48
2023-12-12T04:28:28.660Z,5.47
2023-12-12T04:30:56.417Z,5.45
2023-12-12T04:33:24.064Z,5.43
2023-12-12T04:35:51.604Z,5.40
2023-12-12T04:38:19.568Z,5.42
2023-12-12T04:40:47.131Z,5.43
2023-12-12T04:43:14.710Z,5.46
2023-12-12T04:45:42.248Z,5.48
2023-12-12T04:48:10.171Z,5.50
2023-12-12T04:50:38.092Z,5.55
2023-12-12T04:53:05.740Z,5.59
2023-12-12T04:55:33.438Z,5.63
2023-12-12T04:58:00.987Z,5.66
2023-12-12T05:00:28.635Z,5.65
2023-12-12T05:02:56.179Z,5.64
2023-12-12T05:05:23.807Z,5.64
2023-12-12T05:07:51.750Z,5.63
2023-12-12T05:10:19.640Z,5.62
2023-12-12T05:12:47.443Z,5.59
2023-12-12T05:15:15.234Z,5.56
2023-12-12T05:17:43.152Z,5.54
2023-12-12T05:20:11.331Z,5.54
2023-12-12T05:22:39.166Z,5.53
2023-12-12T05:25:06.814Z,5.51
2023-12-12T05:27:34.647Z,5.49
2023-12-12T05:30:02.403Z,5.49
2023-12-12T05:32:30.037Z,5.49
2023-12-12T05:34:57.823Z,5.48
2023-12-12T05:37:25.424Z,5.45
2023-12-12T05:39:53.252Z,5.42
2023-12-12T05:42:21.010Z,5.42
2023-12-12T05:44:48.686Z,5.42
2023-12-12T05:47:16.337Z,5.42
2023-12-12T05:49:43.943Z,5.40
2023-12-12T05:52:11.701Z,5.40
2023-12-12T05:54:39.282Z,5.40
2023-12-12T05:57:07.090Z,5.38
2023-12-12T05:59:35.056Z,5.36
2023-12-12T06:02:02.680Z,5.36
2023-12-12T06:04:30.591Z,5.36
2023-12-12T06:06:58.367Z,5.36
2023-12-12T06:09:25.913Z,5.34
2023-12-12T06:11:53.571Z,5.33
2023-12-12T06:14:21.129Z,5.30
2023-12-12T06:16:48.801Z,5.29
2023-12-12T06:19:16.315Z,5.29
2023-12-12T06:21:44.461Z,5.28
2023-12-12T06:24:12.068Z,5.26
2023-12-12T06:26:39.761Z,5.21
2023-12-12T06:29:07.302Z,5.14
2023-12-12T06:31:34.895Z,5.09
2023-12-12T06:34:02.713Z,5.07
2023-12-12T06:36:30.584Z,5.03
2023-12-12T06:38:58.141Z,4.99
2023-12-12T06:41:25.739Z,4.95
2023-12-12T06:43:53.693Z,4.92
2023-12-12T06:46:21.270Z,4.91
2023-12-12T06:48:49.005Z,4.89
2023-12-12T06:51:16.859Z,4.88
2023-12-12T06:53:44.416Z,4.88
2023-12-12T06:56:11.982Z,4.90
2023-12-12T06:58:39.700Z,4.91
2023-12-12T07:01:07.490Z,4.91
2023-12-12T07:03:36.080Z,4.91
2023-12-12T07:06:04.410Z,4.92
2023-12-12T07:08:32.225Z,4.92
2023-12-12T07:10:59.834Z,4.93
2023-12-12T07:13:45.776Z,4.94
2023-12-12T07:16:13.463Z,4.95
2023-12-12T07:18:41.274Z,4.96
2023-12-12T07:21:08.981Z,4.96
2023-12-12T07:23:36.638Z,4.94
2023-12-12T07:26:04.180Z,4.93
2023-12-12T07:28:31.913Z,4.93
2023-12-12T07:30:59.713Z,4.94
2023-12-12T07:33:27.752Z,4.93
2023-12-12T07:35:55.444Z,4.92
2023-12-12T07:38:22.999Z,4.91
2023-12-12T07:40:50.737Z,4.92
2023-12-12T07:43:18.447Z,4.95
2023-12-12T07:45:46.090Z,4.98
2023-12-12T07:48:14.157Z,5.01
2023-12-12T07:50:41.826Z,5.05
2023-12-12T07:53:09.491Z,5.09
2023-12-12T07:55:37.106Z,5.14
2023-12-12T07:58:04.963Z,5.20
2023-12-12T08:00:32.682Z,5.24
2023-12-12T08:03:00.365Z,5.27
2023-12-12T08:05:27.897Z,5.32
2023-12-12T08:07:55.561Z,5.43
2023-12-12T08:10:23.165Z,5.48
2023-12-12T08:12:50.781Z,5.47
2023-12-12T08:15:18.430Z,5.46
2023-12-12T08:17:46.083Z,5.45
2023-12-12T08:20:13.948Z,5.44
2023-12-12T08:22:41.640Z,5.45
2023-12-12T08:25:09.424Z,5.46
2023-12-12T08:27:36.945Z,5.45
2023-12-12T08:30:04.607Z,5.44
2023-12-12T08:32:32.235Z,5.44
2023-12-12T08:35:00.081Z,5.43
2023-12-12T08:37:27.716Z,5.40
2023-12-12T08:39:55.404Z,5.36
2023-12-12T08:42:23.028Z,5.36
2023-12-12T08:44:50.672Z,5.37
2023-12-12T08:47:18.233Z,5.40
2023-12-12T08:49:46.381Z,5.42
2023-12-12T08:52:14.113Z,5.42
2023-12-12T08:54:41.940Z,5.44
2023-12-12T08:57:09.604Z,5.48
2023-12-12T08:59:37.153Z,5.53
2023-12-12T09:02:05.149Z,5.56
2023-12-12T09:04:32.909Z,5.57
2023-12-12T09:07:00.737Z,5.58
2023-12-12T09:09:28.524Z,5.60
2023-12-12T09:11:56.509Z,5.63
2023-12-12T09:14:24.157Z,5.65
2023-12-12T09:16:51.708Z,5.66
2023-12-12T09:19:19.348Z,5.68
2023-12-12T09:21:47.333Z,5.73
2023-12-12T09:24:14.999Z,5.75
2023-12-12T09:26:42.570Z,5.76
2023-12-12T09:29:10.220Z,5.77
2023-12-12T09:31:38.133Z,5.79
2023-12-12T09:34:05.958Z,5.84
2023-12-12T09:36:33.614Z,5.89
2023-12-12T09:39:01.271Z,5.94
2023-12-12T09:41:28.830Z,5.98
2023-12-12T09:43:56.408Z,6.03
2023-12-12T09:46:24.198Z,6.05
2023-12-12T09:48:52.113Z,6.06
2023-12-12T09:51:19.881Z,6.05
2023-12-12T09:53:48.205Z,6.02
2023-12-12T09:56:15.931Z,6.01
2023-12-12T09:58:43.590Z,6.01
2023-12-12T10:01:11.229Z,6.07
2023-12-12T10:03:39.075Z,6.12
2023-12-12T10:06:06.929Z,6.17
2023-12-12T10:08:34.556Z,6.24
2023-12-12T10:11:02.210Z,6.34
2023-12-12T10:13:29.798Z,6.39
2023-12-12T10:15:57.890Z,6.43
2023-12-12T10:18:25.659Z,6.51
2023-12-12T10:20:53.365Z,6.60
2023-12-12T10:23:21.047Z,6.68
2023-12-12T10:25:48.696Z,6.74
2023-12-12T10:28:16.589Z,6.79
2023-12-12T10:30:44.326Z,6.83
2023-12-12T10:33:12.232Z,6.85
2023-12-12T10:35:39.952Z,6.88
2023-12-12T10:38:07.622Z,6.92
2023-12-12T10:40:35.328Z,6.95
2023-12-12T10:43:03.162Z,6.99
2023-12-12T10:45:30.783Z,7.04
2023-12-12T10:47:58.446Z,7.10
2023-12-12T10:50:26.212Z,7.16
2023-12-12T10:52:53.988Z,7.22
2023-12-12T10:55:22.100Z,7.28
2023-12-12T10:57:49.928Z,7.42
2023-12-12T11:00:19.440Z,7.61
2023-12-12T11:02:49.024Z,7.74
2023-12-12T11:05:17.557Z,7.80
2023-12-12T11:07:45.371Z,7.79
2023-12-12T11:10:13.165Z,7.79
2023-12-12T11:12:40.909Z,7.82
2023-12-12T11:15:08.468Z,7.82
2023-12-12T11:17:36.054Z,7.81
2023-12-12T11:20:03.842Z,7.79
2023-12-12T11:22:32.289Z,7.75
2023-12-12T11:25:01.607Z,7.71
2023-12-12T11:27:29.322Z,7.64
2023-12-12T11:29:56.881Z,7.60
2023-12-12T11:32:24.588Z,7.56
2023-12-12T11:34:52.581Z,7.52
2023-12-12T11:37:20.488Z,7.50
2023-12-12T11:39:48.140Z,7.49
2023-12-12T11:42:15.805Z,7.50
2023-12-12T11:44:43.392Z,7.50
2023-12-12T11:47:11.244Z,7.47
2023-12-12T11:49:39.071Z,7.44
2023-12-12T11:52:06.757Z,7.45
2023-12-12T11:54:34.438Z,7.47
2023-12-12T11:57:02.276Z,7.50
2023-12-12T11:59:29.965Z,7.54
2023-12-12T12:01:57.665Z,7.61
2023-12-12T12:04:25.428Z,7.68
2023-12-12T12:06:53.026Z,7.70
2023-12-12T12:09:20.406Z,7.71
2023-12-12T12:11:47.994Z,7.73
2023-12-12T12:14:15.619Z,7.74
2023-12-12T12:16:43.195Z,7.74
2023-12-12T12:19:11.288Z,7.80
2023-12-12T12:21:38.995Z,7.82
2023-12-12T12:24:06.660Z,7.75
2023-12-12T12:26:34.320Z,7.66
2023-12-12T12:29:01.877Z,7.59
2023-12-12T12:31:29.596Z,7.53
2023-12-12T12:33:57.510Z,7.48
2023-12-12T12:36:25.268Z,7.44
2023-12-12T12:38:52.832Z,7.44
2023-12-12T12:41:20.487Z,7.47
2023-12-12T12:43:48.203Z,7.61
2023-12-12T12:46:15.869Z,7.79
2023-12-12T12:48:43.622Z,7.99
2023-12-12T12:51:11.237Z,8.15
2023-12-12T12:53:41.377Z,8.25
2023-12-12T12:56:09.222Z,8.38
2023-12-12T12:58:36.807Z,8.46
2023-12-12T13:01:04.833Z,8.51
2023-12-12T13:03:32.674Z,8.54
2023-12-12T13:06:00.416Z,8.62
2023-12-12T13:08:28.041Z,8.77
2023-12-12T13:10:55.786Z,9.08
2023-12-12T13:13:23.656Z,9.27
2023-12-12T13:15:51.405Z,9.28
2023-12-12T13:18:19.828Z,9.23
2023-12-12T13:20:48.308Z,9.14
2023-12-12T13:23:16.409Z,9.06
2023-12-12T13:25:44.386Z,8.95
2023-12-12T13:28:12.230Z,8.85
2023-12-12T13:30:39.936Z,8.71
2023-12-12T13:33:07.819Z,8.57
2023-12-12T13:35:37.750Z,8.39
2023-12-12T13:38:06.095Z,8.21
2023-12-12T13:40:34.603Z,8.03
2023-12-12T13:43:02.691Z,7.85
2023-12-12T13:45:30.336Z,7.75
2023-12-12T13:47:57.946Z,7.69
2023-12-12T13:50:25.655Z,7.63
2023-12-12T13:52:53.313Z,7.60
2023-12-12T13:55:20.937Z,7.54
2023-12-12T13:57:48.872Z,7.48
2023-12-12T14:00:18.513Z,7.44
2023-12-12T14:02:47.308Z,7.38
2023-12-12T14:05:15.105Z,7.30
2023-12-12T14:07:42.910Z,7.21
2023-12-12T14:10:10.783Z,7.12
2023-12-12T14:12:38.391Z,7.05
2023-12-12T14:15:05.955Z,7.02
2023-12-12T14:17:33.767Z,7.00
2023-12-12T14:20:01.964Z,6.98
2023-12-12T14:22:30.145Z,6.94
2023-12-12T14:24:57.933Z,6.90
2023-12-12T14:27:25.487Z,6.84
2023-12-12T14:29:53.310Z,6.75
2023-12-12T14:32:21.120Z,6.64
2023-12-12T14:34:48.802Z,6.51
2023-12-12T14:37:16.710Z,6.38
2023-12-12T14:39:44.413Z,6.26
2023-12-12T14:42:12.404Z,6.18
2023-12-12T14:44:39.937Z,6.11
2023-12-12T14:47:07.602Z,6.04
2023-12-12T14:49:35.243Z,5.99
2023-12-12T14:52:02.933Z,5.96
2023-12-12T14:54:30.506Z,5.91
2023-12-12T14:57:06.026Z,5.85
2023-12-12T14:59:38.700Z,5.81
2023-12-12T15:02:06.875Z,5.76
2023-12-12T15:04:34.747Z,5.72
2023-12-12T15:07:02.572Z,5.68
2023-12-12T15:09:30.171Z,5.63
2023-12-12T15:11:57.842Z,5.60
2023-12-12T15:14:25.382Z,5.58
2023-12-12T15:16:53.010Z,5.57
2023-12-12T15:19:20.727Z,5.58
2023-12-12T15:21:48.582Z,5.59
2023-12-12T15:24:16.137Z,5.59
2023-12-12T15:26:44.106Z,5.59
2023-12-12T15:29:11.766Z,5.57
2023-12-12T15:31:39.731Z,5.54
2023-12-12T15:34:07.649Z,5.52
2023-12-12T15:36:35.365Z,5.51
2023-12-12T15:39:03.017Z,5.50
2023-12-12T15:41:30.583Z,5.50
2023-12-12T15:43:58.408Z,5.50
2023-12-12T15:46:26.135Z,5.49
2023-12-12T15:48:54.132Z,5.48
2023-12-12T15:51:21.751Z,5.49
2023-12-12T15:53:49.408Z,5.47
2023-12-12T15:56:16.959Z,5.45
2023-12-12T15:58:44.670Z,5.42
2023-12-12T16:01:12.417Z,5.39
2023-12-12T16:03:40.183Z,5.35
2023-12-12T16:06:08.100Z,5.33
2023-12-12T16:08:36.005Z,5.33
2023-12-12T16:11:03.549Z,5.35
2023-12-12T16:13:31.126Z,5.36
2023-12-12T16:15:58.763Z,5.37
2023-12-12T16:18:26.432Z,5.37
2023-12-12T16:20:53.996Z,5.37
2023-12-12T16:23:21.747Z,5.34
2023-12-12T16:25:49.430Z,5.30
2023-12-12T16:28:17.681Z,5.25
2023-12-12T16:30:45.470Z,5.21
2023-12-12T16:33:13.222Z,5.19
2023-12-12T16:35:40.903Z,5.17
2023-12-12T16:38:08.599Z,5.18
2023-12-12T16:40:36.348Z,5.19
2023-12-12T16:43:04.066Z,5.19
2023-12-12T16:45:31.831Z,5.19
2023-12-12T16:47:59.453Z,5.20
2023-12-12T16:50:28.073Z,5.22
2023-12-12T16:52:55.686Z,5.20
2023-12-12T16:55:23.337Z,5.17
2023-12-12T16:57:51.045Z,5.12
2023-12-12T17:00:18.728Z,5.09
2023-12-12T17:02:46.274Z,5.07
2023-12-12T17:05:14.212Z,5.07
2023-12-12T17:07:41.959Z,5.07
2023-12-12T17:10:10.206Z,5.07
2023-12-12T17:12:38.055Z,5.08
2023-12-12T17:15:05.753Z,5.08
2023-12-12T17:17:33.606Z,5.07
2023-12-12T17:20:01.377Z,5.04
2023-12-12T17:22:29.003Z,4.99
2023-12-12T17:24:56.658Z,4.92
2023-12-12T17:27:24.335Z,4.88
2023-12-12T17:29:51.987Z,4.87
2023-12-12T17:32:19.658Z,4.87
2023-12-12T17:34:47.467Z,4.88
2023-12-12T17:37:15.718Z,4.87
2023-12-12T17:39:43.242Z,4.86
2023-12-12T17:42:10.910Z,4.85
2023-12-12T17:44:38.561Z,4.84
2023-12-12T17:47:06.264Z,4.81
2023-12-12T17:49:34.288Z,4.79
2023-12-12T17:52:02.183Z,4.78
2023-12-12T17:54:29.931Z,4.78
2023-12-12T17:56:57.588Z,4.79
2023-12-12T17:59:25.051Z,4.81
2023-12-12T18:01:52.801Z,4.82
2023-12-12T18:04:20.609Z,4.83
2023-12-12T18:06:48.471Z,4.82
2023-12-12T18:09:16.200Z,4.77
2023-12-12T18:11:43.952Z,4.73
2023-12-12T18:14:11.533Z,4.69
2023-12-12T18:16:39.212Z,4.63
2023-12-12T18:19:07.125Z,4.55
2023-12-12T18:21:34.909Z,4.49
2023-12-12T18:24:02.520Z,4.44
2023-12-12T18:26:30.364Z,4.40
2023-12-12T18:28:58.111Z,4.34
2023-12-12T18:31:25.853Z,4.29
2023-12-12T18:33:53.990Z,4.24
2023-12-12T18:36:21.806Z,4.19
2023-12-12T18:38:49.357Z,4.14
2023-12-12T18:41:17.029Z,4.10
2023-12-12T18:43:44.752Z,4.06
2023-12-12T18:46:12.476Z,4.01
2023-12-12T18:48:40.184Z,3.94
2023-12-12T18:51:07.862Z,3.88
2023-12-12T18:53:35.435Z,3.82
2023-12-12T18:56:03.405Z,3.75
2023-12-12T18:58:31.098Z,3.69
2023-12-12T19:00:58.740Z,3.65
2023-12-12T19:03:26.396Z,3.62
2023-12-12T19:05:54.120Z,3.60
2023-12-12T19:08:21.806Z,3.61
2023-12-12T19:10:49.489Z,3.61
2023-12-12T19:13:17.267Z,3.61
2023-12-12T19:15:45.117Z,3.61
2023-12-12T19:18:12.874Z,3.60
2023-12-12T19:20:40.522Z,3.57
2023-12-12T19:23:08.190Z,3.55
2023-12-12T19:25:35.862Z,3.56
2023-12-12T19:28:03.451Z,3.57
2023-12-12T19:30:31.221Z,3.59
2023-12-12T19:32:59.065Z,3.60
2023-12-12T19:35:26.996Z,3.59
2023-12-12T19:37:54.609Z,3.59
2023-12-12T19:40:22.353Z,3.57
2023-12-12T19:42:50.002Z,3.53
2023-12-12T19:45:17.755Z,3.51
2023-12-12T19:47:45.449Z,3.48
2023-12-12T19:50:13.135Z,3.44
2023-12-12T19:52:40.978Z,3.40
2023-12-12T19:55:08.687Z,3.38
2023-12-12T19:57:36.776Z,3.37
2023-12-12T20:00:04.437Z,3.36
2023-12-12T20:02:32.105Z,3.36
2023-12-12T20:04:59.714Z,3.35
2023-12-12T20:07:27.542Z,3.31
2023-12-12T20:09:55.187Z,3.29
2023-12-12T20:12:22.845Z,3.28
2023-12-12T20:14:50.506Z,3.30
2023-12-12T20:17:18.470Z,3.31
2023-12-12T20:19:46.186Z,3.30
2023-12-12T20:22:13.904Z,3.28
2023-12-12T20:24:41.663Z,3.27
2023-12-12T20:27:09.332Z,3.27
2023-12-12T20:29:36.984Z,3.29
2023-12-12T20:32:04.643Z,3.32
2023-12-12T20:34:32.229Z,3.37
2023-12-12T20:37:00.178Z,3.41
2023-12-12T20:39:27.622Z,3.45
2023-12-12T20:41:55.186Z,3.48
2023-12-12T20:44:22.747Z,3.49
2023-12-12T20:46:50.465Z,3.52
2023-12-12T20:49:18.223Z,3.54
2023-12-12T20:51:45.830Z,3.56
2023-12-12T20:54:13.501Z,3.57
2023-12-12T20:56:41.075Z,3.57
2023-12-12T20:59:08.725Z,3.54
2023-12-12T21:01:36.607Z,3.51
2023-12-12T21:04:04.342Z,3.47
2023-12-12T21:06:32.201Z,3.42
2023-12-12T21:08:59.888Z,3.38
2023-12-12T21:11:27.543Z,3.34
2023-12-12T21:13:55.153Z,3.30
2023-12-12T21:16:22.783Z,3.24
2023-12-12T21:18:50.497Z,3.20
2023-12-12T21:21:18.303Z,3.13
2023-12-12T21:23:46.163Z,3.09
2023-12-12T21:26:13.806Z,3.03
2023-12-12T21:28:41.459Z,3.00
2023-12-12T21:31:09.274Z,2.97
2023-12-12T21:33:37.079Z,2.93
2023-12-12T21:36:04.759Z,2.88
2023-12-12T21:38:32.418Z,2.84
2023-12-12T21:41:00.282Z,2.80
2023-12-12T21:43:27.869Z,2.74
2023-12-12T21:45:55.602Z,2.66
2023-12-12T21:48:23.343Z,2.59
2023-12-12T21:50:51.022Z,2.51
2023-12-12T21:53:18.692Z,2.45
2023-12-12T21:55:46.397Z,2.42
2023-12-12T21:58:14.033Z,2.42
2023-12-12T22:00:41.594Z,2.45
2023-12-12T22:03:09.584Z,2.47
2023-12-12T22:05:37.253Z,2.48
2023-12-12T22:08:04.866Z,2.51
2023-12-12T22:10:32.483Z,2.55
2023-12-12T22:13:00.294Z,2.57
2023-12-12T22:15:27.857Z,2.61
2023-12-12T22:17:55.542Z,2.65
2023-12-12T22:20:23.317Z,2.71
2023-12-12T22:22:51.472Z,2.73
2023-12-12T22:25:19.237Z,2.75
2023-12-12T22:27:46.869Z,2.78
2023-12-12T22:30:14.447Z,2.77
2023-12-12T22:32:42.235Z,2.76
2023-12-12T22:35:09.884Z,2.75
2023-12-12T22:37:37.829Z,2.69
2023-12-12T22:40:05.845Z,2.63
2023-12-12T22:42:33.456Z,2.60
2023-12-12T22:45:01.420Z,2.58
2023-12-12T22:47:29.043Z,2.58
2023-12-12T22:49:56.898Z,2.60
2023-12-12T22:52:24.663Z,2.59
2023-12-12T22:54:52.486Z,2.60
2023-12-12T22:57:20.168Z,2.59
2023-12-12T22:59:47.917Z,2.61
2023-12-12T23:02:15.545Z,2.64
2023-12-12T23:04:43.398Z,2.67
2023-12-12T23:07:11.466Z,2.70
2023-12-12T23:09:39.258Z,2.73
2023-12-12T23:12:06.825Z,2.76
2023-12-12T23:14:36.438Z,2.81
2023-12-12T23:17:05.531Z,2.85
2023-12-12T23:19:32.976Z,2.88
2023-12-12T23:22:00.638Z,2.90
2023-12-12T23:24:28.303Z,2.89
2023-12-12T23:26:55.859Z,2.88
2023-12-12T23:29:23.520Z,2.89
2023-12-12T23:31:51.170Z,2.90
2023-12-12T23:34:19.111Z,2.90
2023-12-12T23:36:46.826Z,2.91
2023-12-12T23:39:14.474Z,2.91
2023-12-12T23:41:42.033Z,2.95
2023-12-12T23:44:09.685Z,3.01
2023-12-12T23:46:37.263Z,3.09
2023-12-12T23:49:05.071Z,3.16
2023-12-12T23:51:32.692Z,3.21
2023-12-12T23:54:00.333Z,3.26
2023-12-12T23:56:27.999Z,3.31
2023-12-12T23:58:55.632Z,3.34
